North Baltimore, Ohio
Current Conditions -  °F | °C
As of 9:53 AM on Wednesday 22 Oct 2014 (Local Time) from KFDY Reporting Station
Overcast Overcast  
Wind Chill: 41°   Ceiling: 1500
Heat Index: 47°   Visibility: 10mi
Dew Point: 39°   Wind: 13mph
Humidity: 74%   Direction: 360°N
Pressure: 30.3"   Gusts: NA
Location:  41.18°N, 83.68°W
Report Text: KFDY 221353Z AUTO 36011KT 10SM OVC015 08/04 A3030 RMK AO2 SLP259 T00830039
Loading
Personal Weather Stations






























Interactive Weather Map
Tropical Storm Tracking
New forecast layout! Learn more

10-Day Weather Forecast

Advertisements
Track Severe Weather on mobile